»·PEaware :: N134RX KBFL-KMHV

N134RX :: KBFL-KMHV

FLIGHT INFORMATION

Flight Status: Arrived
Operator: Privately registered:
United States
More flights under this callsign
Pilot: Christopher M. (23411)
Aircraft: CESSNA 172 SKYHAWK
(C172)
More flights by this aircraft type
Origin: KBFL Meadows
United States
Destination: KMHV Mojave
United States
More flights between these airports :: More routes between these airports
Route:
File this flight plan on PilotEdge
Remarks: CAT 6
Altitude:
(Current/Filed)
7,500ft
Speed:
(Current/Filed)
115kts
Departed: 11-Feb-19 01:54 PM
Arrived: 11-Feb-19 02:25 PM
Distance/Time
Traveled:
121nm/0:31
Distance/Time
To Go:
Arrived

Flight Plot

Page will automatically refresh every two minutes.


Map Options




Map Legend


Flown Route
Filed Route
Departure Airport
Arrival Airport
Navaid (VOR, NDB)
Fix

Horizontal Profiles

Position Reports

Time Latitude Longitude Heading Altitude Ground
Speed
11-Feb-19 13:46 35.426192 -119.042681 179 483ft 0kts
11-Feb-19 13:47 35.426192 -119.042681 179 483ft 0kts
11-Feb-19 13:48 35.426192 -119.042681 179 483ft 0kts
11-Feb-19 13:49 35.426192 -119.042681 179 483ft 0kts
11-Feb-19 13:50 35.425952 -119.044451 317 480ft 14kts
11-Feb-19 13:51 35.425679 -119.044790 225 479ft 0kts
11-Feb-19 13:52 35.425653 -119.044824 227 479ft 3kts
11-Feb-19 13:53 35.432998 -119.055418 314 814ft 80kts
11-Feb-19 13:54 35.437759 -119.078341 221 1691ft 109kts
11-Feb-19 13:55 35.410220 -119.072649 135 2052ft 115kts
11-Feb-19 13:56 35.391224 -119.043182 114 2906ft 110kts
11-Feb-19 13:57 35.377212 -119.009403 114 3713ft 111kts
11-Feb-19 13:58 35.363491 -118.976547 112 4605ft 104kts
11-Feb-19 13:59 35.351780 -118.945026 114 5484ft 102kts
11-Feb-19 14:00 35.340548 -118.912794 107 6272ft 104kts
11-Feb-19 14:01 35.330672 -118.879461 107 7017ft 105kts
11-Feb-19 14:02 35.319595 -118.845247 112 7569ft 120kts
11-Feb-19 14:03 35.304852 -118.806464 115 7796ft 128kts
11-Feb-19 14:04 35.288832 -118.765271 115 7748ft 138kts
11-Feb-19 14:05 35.272579 -118.724292 110 7971ft 121kts
11-Feb-19 14:06 35.259694 -118.686197 110 8450ft 122kts
11-Feb-19 14:07 35.247417 -118.647201 110 8908ft 122kts
11-Feb-19 14:08 35.234629 -118.609133 111 9386ft 121kts
11-Feb-19 14:09 35.224424 -118.567750 97 9613ft 133kts
11-Feb-19 14:10 35.219215 -118.521958 94 9680ft 140kts
11-Feb-19 14:11 35.213769 -118.474952 96 9770ft 139kts
11-Feb-19 14:12 35.206078 -118.427216 98 9639ft 149kts
11-Feb-19 14:13 35.190779 -118.380499 141 9405ft 149kts
11-Feb-19 14:14 35.156326 -118.352031 153 9074ft 148kts
11-Feb-19 14:15 35.120180 -118.329887 162 8611ft 147kts
11-Feb-19 14:16 35.095244 -118.292885 105 7852ft 154kts
11-Feb-19 14:17 35.074894 -118.247988 155 6457ft 160kts
11-Feb-19 14:18 35.043886 -118.224088 101 4818ft 140kts
11-Feb-19 14:19 35.056362 -118.188010 68 4053ft 109kts
11-Feb-19 14:20 35.050005 -118.159579 133 3713ft 75kts
11-Feb-19 14:21 35.035984 -118.139272 137 3662ft 77kts
11-Feb-19 14:22 35.027581 -118.117615 60 3452ft 92kts
11-Feb-19 14:23 35.043833 -118.129737 312 2820ft 73kts
11-Feb-19 14:24 35.053341 -118.141302 316 2718ft 23kts
11-Feb-19 14:25 35.057581 -118.147347 272 2740ft 21kts
11-Feb-19 14:26 35.057586 -118.147924 268 2741ft 0kts
11-Feb-19 14:27 35.057578 -118.148666 271 2744ft 12kts
11-Feb-19 14:28 35.056976 -118.152076 242 2751ft 0kts
11-Feb-19 14:29 35.056976 -118.152076 242 2751ft 0kts
11-Feb-19 14:30 35.056976 -118.152076 242 2751ft 0kts
11-Feb-19 14:31 35.056976 -118.152076 242 2751ft 0kts
11-Feb-19 14:32 35.056976 -118.152076 242 2751ft 0kts
11-Feb-19 14:33 35.056976 -118.152076 242 2751ft 0kts
11-Feb-19 14:34 35.056976 -118.152076 242 2751ft 0kts
11-Feb-19 14:35 34.102425 -117.224717 94 1146ft 0kts
11-Feb-19 14:36 34.102425 -117.224717 94 1146ft 0kts
11-Feb-19 14:37 34.102425 -117.224717 94 1146ft 0kts
11-Feb-19 14:38 34.102425 -117.224717 93 1146ft 0kts

Navigation Log

Ident Type
Flight plan parsing failed, navigation log unavailable